createdAt,value
2019-03-18T00:00:09.554Z,2.30
2019-03-18T00:02:37.776Z,1.90
2019-03-18T00:05:06.329Z,1.80
2019-03-18T00:07:34.483Z,2.20
2019-03-18T00:10:02.681Z,1.30
2019-03-18T00:12:30.825Z,1.10
2019-03-18T00:15:01.411Z,1.20
2019-03-18T00:17:28.845Z,1.10
2019-03-18T00:19:56.994Z,1.30
2019-03-18T00:22:25.161Z,1.43
2019-03-18T00:24:53.343Z,1.30
2019-03-18T00:27:21.481Z,1.40
2019-03-18T00:29:49.632Z,1.37
2019-03-18T00:32:17.817Z,1.70
2019-03-18T00:34:45.966Z,1.27
2019-03-18T00:37:14.104Z,1.70
2019-03-18T00:39:42.366Z,1.40
2019-03-18T00:42:10.507Z,1.20
2019-03-18T00:44:38.663Z,1.00
2019-03-18T00:47:06.856Z,1.10
2019-03-18T00:49:35.000Z,1.40
2019-03-18T00:52:03.150Z,1.97
2019-03-18T00:54:31.318Z,1.20
2019-03-18T00:56:59.470Z,1.53
2019-03-18T00:59:27.637Z,2.13
2019-03-18T01:01:55.892Z,1.53
2019-03-18T01:04:24.038Z,1.70
2019-03-18T01:06:52.173Z,1.60
2019-03-18T01:09:20.352Z,1.40
2019-03-18T01:11:48.508Z,1.62
2019-03-18T01:14:16.668Z,1.50
2019-03-18T01:16:44.852Z,1.40
2019-03-18T01:19:13.033Z,1.50
2019-03-18T01:21:41.188Z,1.23
2019-03-18T01:24:09.386Z,2.23
2019-03-18T01:26:37.507Z,1.50
2019-03-18T01:29:05.644Z,1.47
2019-03-18T01:31:33.889Z,1.47
2019-03-18T01:34:02.044Z,1.63
2019-03-18T01:36:30.209Z,2.33
2019-03-18T01:38:58.374Z,2.10
2019-03-18T01:41:26.550Z,3.20
2019-03-18T01:43:54.707Z,2.40
2019-03-18T01:46:22.887Z,1.93
2019-03-18T01:48:51.027Z,3.00
2019-03-18T01:51:19.168Z,1.97
2019-03-18T01:53:47.347Z,2.72
2019-03-18T01:56:15.500Z,2.20
2019-03-18T01:58:43.656Z,2.00
2019-03-18T02:01:11.829Z,2.00
2019-03-18T02:03:41.684Z,2.03
2019-03-18T02:06:11.008Z,2.53
2019-03-18T02:08:39.272Z,1.80
2019-03-18T02:11:07.414Z,3.30
2019-03-18T02:13:35.553Z,2.10
2019-03-18T02:16:03.942Z,1.47
2019-03-18T02:18:32.135Z,2.20
2019-03-18T02:21:00.431Z,1.67
2019-03-18T02:23:28.612Z,1.77
2019-03-18T02:25:56.755Z,1.70
2019-03-18T02:28:24.899Z,2.50
2019-03-18T02:30:53.081Z,1.70
2019-03-18T02:33:21.241Z,1.30
2019-03-18T02:35:49.373Z,1.70
2019-03-18T02:38:17.570Z,1.53
2019-03-18T02:40:45.719Z,1.13
2019-03-18T02:43:13.919Z,1.30
2019-03-18T02:45:42.100Z,1.10
2019-03-18T02:48:10.234Z,1.20
2019-03-18T02:50:38.396Z,1.00
2019-03-18T02:53:06.563Z,1.50
2019-03-18T02:55:34.701Z,1.17
2019-03-18T02:58:06.905Z,1.37
2019-03-18T03:00:35.361Z,1.20
2019-03-18T03:03:03.558Z,1.40
2019-03-18T03:05:31.746Z,1.80
2019-03-18T03:08:02.843Z,1.60
2019-03-18T03:10:30.978Z,1.73
2019-03-18T03:12:59.220Z,1.30
2019-03-18T03:15:27.417Z,2.10
2019-03-18T03:17:55.583Z,1.13
2019-03-18T03:20:23.735Z,2.27
2019-03-18T03:22:51.917Z,1.67
2019-03-18T03:25:20.071Z,1.70
2019-03-18T03:27:49.134Z,1.67
2019-03-18T03:30:19.349Z,1.60
2019-03-18T03:32:47.509Z,1.70
2019-03-18T03:35:15.661Z,1.40
2019-03-18T03:37:43.847Z,1.10
2019-03-18T03:40:12.011Z,1.90
2019-03-18T03:42:40.149Z,1.63
2019-03-18T03:45:09.775Z,1.60
2019-03-18T03:47:37.944Z,1.93
2019-03-18T03:50:07.369Z,1.50
2019-03-18T03:52:35.621Z,2.00
2019-03-18T03:55:04.451Z,1.80
2019-03-18T03:57:32.577Z,1.67
2019-03-18T04:00:06.152Z,2.30
2019-03-18T04:02:36.981Z,2.23
2019-03-18T04:05:08.247Z,1.50
2019-03-18T04:07:40.749Z,2.23
2019-03-18T04:10:10.507Z,2.47
2019-03-18T04:12:40.259Z,2.37
2019-03-18T04:15:09.977Z,2.37
2019-03-18T04:17:39.713Z,3.17
2019-03-18T04:20:09.286Z,2.33
2019-03-18T04:22:39.021Z,3.13
2019-03-18T04:25:10.055Z,2.10
2019-03-18T04:27:45.842Z,2.87
2019-03-18T04:30:19.583Z,2.80
2019-03-18T04:32:52.024Z,3.07
2019-03-18T04:35:23.726Z,2.90
2019-03-18T04:37:52.054Z,3.10
2019-03-18T04:40:29.902Z,3.17
2019-03-18T04:42:55.911Z,3.10
2019-03-18T04:45:25.721Z,3.00
2019-03-18T04:47:53.912Z,4.33
2019-03-18T04:50:25.868Z,2.73
2019-03-18T04:52:56.806Z,2.80
2019-03-18T04:55:31.424Z,2.33
2019-03-18T04:58:12.915Z,2.33
2019-03-18T05:00:50.283Z,2.60
2019-03-18T05:03:30.055Z,2.00
2019-03-18T05:06:03.234Z,2.10
2019-03-18T05:08:35.380Z,2.73
2019-03-18T05:11:09.596Z,2.90
2019-03-18T05:13:50.840Z,2.37
2019-03-18T05:16:21.148Z,1.97
2019-03-18T05:18:53.905Z,2.10
2019-03-18T05:21:22.672Z,1.80
2019-03-18T05:23:53.424Z,2.13
2019-03-18T05:26:23.143Z,2.33
2019-03-18T05:28:53.252Z,1.67
2019-03-18T05:31:23.725Z,1.80
2019-03-18T05:34:16.021Z,1.57
2019-03-18T05:36:44.169Z,0.93
2019-03-18T05:39:12.496Z,1.50
2019-03-18T05:41:41.268Z,1.40
2019-03-18T05:44:09.441Z,1.90
2019-03-18T05:46:40.943Z,1.70
2019-03-18T05:49:12.792Z,1.73
2019-03-18T05:51:41.852Z,1.23
2019-03-18T05:54:10.054Z,1.60
2019-03-18T05:56:38.430Z,1.20
2019-03-18T05:59:16.408Z,1.80
2019-03-18T06:01:45.006Z,1.57
2019-03-18T06:04:14.461Z,1.40
2019-03-18T06:06:42.636Z,1.00
2019-03-18T06:09:14.318Z,1.50
2019-03-18T06:11:43.502Z,1.67
2019-03-18T06:14:12.862Z,1.63
2019-03-18T06:19:41.741Z,1.13
2019-03-18T06:22:12.456Z,1.40
2019-03-18T06:24:44.373Z,1.40
2019-03-18T06:27:18.038Z,1.40
2019-03-18T06:29:47.673Z,1.97
2019-03-18T06:32:17.321Z,2.13
2019-03-18T06:34:45.498Z,2.60
2019-03-18T06:37:17.215Z,2.37
2019-03-18T06:39:46.383Z,2.20
2019-03-18T06:42:14.561Z,1.80
2019-03-18T06:44:46.760Z,1.90
2019-03-18T06:47:14.966Z,2.30
2019-03-18T06:49:46.865Z,1.93
2019-03-18T06:52:20.071Z,1.50
2019-03-18T06:55:00.440Z,1.40
2019-03-18T06:57:32.545Z,1.37
2019-03-18T07:00:01.311Z,1.30
2019-03-18T07:02:30.344Z,1.63
2019-03-18T07:05:17.720Z,1.47
2019-03-18T07:07:49.153Z,1.37
2019-03-18T07:10:21.691Z,2.23
2019-03-18T07:12:49.818Z,1.50
2019-03-18T07:15:23.479Z,1.50
2019-03-18T07:17:57.344Z,2.63
2019-03-18T07:20:28.473Z,2.00
2019-03-18T07:23:01.133Z,2.17
2019-03-18T07:25:29.290Z,2.00
2019-03-18T07:28:08.833Z,3.47
2019-03-18T07:30:34.510Z,2.70
2019-03-18T07:33:10.194Z,1.80
2019-03-18T07:35:43.663Z,2.37
2019-03-18T07:38:13.425Z,2.90
2019-03-18T07:40:44.857Z,2.17
2019-03-18T07:43:14.838Z,1.93
2019-03-18T07:45:46.118Z,2.33
2019-03-18T07:48:30.789Z,2.87
2019-03-18T07:50:55.365Z,3.23
2019-03-18T07:53:27.293Z,3.33
2019-03-18T07:55:56.481Z,2.27
2019-03-18T07:58:24.720Z,2.37
2019-03-18T08:00:53.009Z,3.00
2019-03-18T08:03:21.313Z,2.70
2019-03-18T08:05:49.553Z,2.27
2019-03-18T08:08:17.806Z,3.13
2019-03-18T08:10:45.953Z,3.00
2019-03-18T08:13:14.164Z,2.20
2019-03-18T08:15:42.336Z,2.20
2019-03-18T08:18:10.513Z,1.77
2019-03-18T08:20:38.663Z,1.80
2019-03-18T08:23:06.816Z,2.10
2019-03-18T08:25:35.037Z,1.67
2019-03-18T08:28:03.182Z,1.37
2019-03-18T08:30:31.348Z,1.13
2019-03-18T08:32:59.608Z,1.50
2019-03-18T08:35:27.796Z,1.20
2019-03-18T08:37:55.981Z,1.43
2019-03-18T08:40:24.137Z,1.30
2019-03-18T08:42:52.286Z,1.40
2019-03-18T08:45:20.551Z,1.37
2019-03-18T08:47:48.725Z,1.57
2019-03-18T08:50:16.880Z,1.90
2019-03-18T08:52:46.288Z,1.80
2019-03-18T08:55:14.497Z,1.97
2019-03-18T08:57:42.648Z,1.93
2019-03-18T09:00:11.855Z,2.00
2019-03-18T09:02:40.042Z,1.67
2019-03-18T09:05:08.939Z,1.63
2019-03-18T09:07:37.101Z,2.00
2019-03-18T09:10:06.905Z,1.57
2019-03-18T09:12:35.173Z,1.50
2019-03-18T09:15:04.293Z,1.80
2019-03-18T09:17:32.469Z,1.67
2019-03-18T09:20:00.605Z,1.97
2019-03-18T09:22:28.759Z,1.87
2019-03-18T09:24:56.954Z,1.80
2019-03-18T09:27:25.251Z,1.60
2019-03-18T09:29:53.446Z,1.50
2019-03-18T09:32:21.666Z,2.20
2019-03-18T09:34:49.783Z,2.10
2019-03-18T09:37:18.071Z,2.47
2019-03-18T09:39:46.369Z,1.93
2019-03-18T09:42:14.517Z,2.70
2019-03-18T09:44:42.672Z,2.33
2019-03-18T09:47:10.863Z,2.40
2019-03-18T09:49:39.005Z,2.23
2019-03-18T09:52:07.158Z,2.60
2019-03-18T09:54:35.513Z,2.70
2019-03-18T09:57:03.606Z,2.30
2019-03-18T09:59:31.756Z,2.93
2019-03-18T10:01:59.924Z,2.17
2019-03-18T10:04:28.075Z,2.13
2019-03-18T10:06:56.232Z,1.83
2019-03-18T10:09:24.491Z,1.90
2019-03-18T10:11:52.626Z,1.57
2019-03-18T10:14:20.764Z,1.70
2019-03-18T10:16:48.937Z,1.80
2019-03-18T10:19:17.088Z,2.17
2019-03-18T10:21:45.658Z,2.23
2019-03-18T10:24:16.097Z,1.77
2019-03-18T10:26:44.286Z,2.07
2019-03-18T10:29:12.401Z,2.53
2019-03-18T10:31:40.581Z,2.43
2019-03-18T10:34:08.732Z,2.60
2019-03-18T10:36:36.918Z,3.50
2019-03-18T10:39:06.467Z,2.93
2019-03-18T10:41:34.672Z,2.53
2019-03-18T10:44:02.814Z,2.03
2019-03-18T10:46:30.981Z,2.67
2019-03-18T10:48:59.120Z,2.40
2019-03-18T10:51:27.265Z,1.83
2019-03-18T10:53:55.449Z,2.67
2019-03-18T10:56:23.597Z,2.70
2019-03-18T10:58:51.750Z,3.13
2019-03-18T11:01:20.058Z,2.10
2019-03-18T11:03:48.272Z,2.30
2019-03-18T11:06:16.426Z,2.37
2019-03-18T11:08:44.618Z,2.30
2019-03-18T11:11:12.842Z,2.50
2019-03-18T11:13:40.985Z,1.80
2019-03-18T11:16:09.177Z,1.70
2019-03-18T11:18:37.364Z,2.07
2019-03-18T11:21:05.504Z,1.60
2019-03-18T11:23:33.685Z,1.60
2019-03-18T11:26:01.856Z,1.83
2019-03-18T11:28:29.980Z,1.83
2019-03-18T11:30:59.039Z,1.87
2019-03-18T11:33:28.816Z,1.80
2019-03-18T11:35:56.984Z,2.23
2019-03-18T11:38:25.144Z,1.80
2019-03-18T11:40:53.607Z,1.70
2019-03-18T11:43:21.758Z,2.83
2019-03-18T11:45:52.617Z,2.43
2019-03-18T11:48:20.987Z,1.50
2019-03-18T11:50:49.128Z,1.83
2019-03-18T11:53:17.307Z,1.50
2019-03-18T11:55:45.788Z,1.70
2019-03-18T11:58:13.929Z,1.07
2019-03-18T12:00:42.111Z,1.67
2019-03-18T12:03:10.274Z,2.43
2019-03-18T12:05:38.689Z,1.60
2019-03-18T12:08:07.209Z,1.20
2019-03-18T12:10:35.360Z,1.23
2019-03-18T12:13:03.503Z,1.80
2019-03-18T12:15:31.685Z,1.63
2019-03-18T12:17:59.865Z,1.80
2019-03-18T12:20:28.037Z,1.40
2019-03-18T12:22:56.206Z,2.00
2019-03-18T12:25:24.418Z,1.70
2019-03-18T12:27:52.555Z,1.47
2019-03-18T12:30:21.395Z,1.73
2019-03-18T12:32:49.845Z,2.20
2019-03-18T12:35:18.013Z,1.67
2019-03-18T12:37:46.224Z,1.70
2019-03-18T12:40:14.962Z,2.23
2019-03-18T12:42:43.484Z,2.20
2019-03-18T12:45:13.539Z,2.20
2019-03-18T12:47:41.688Z,2.67
2019-03-18T12:50:11.461Z,2.37
2019-03-18T12:52:39.633Z,2.00
2019-03-18T12:55:07.799Z,1.70
2019-03-18T12:57:35.936Z,1.93
2019-03-18T13:00:22.219Z,1.90
2019-03-18T13:02:51.343Z,1.70
2019-03-18T13:05:22.285Z,2.00
2019-03-18T13:07:54.660Z,2.37
2019-03-18T13:10:25.155Z,1.70
2019-03-18T13:12:53.813Z,1.67
2019-03-18T13:15:21.987Z,2.37
2019-03-18T13:17:50.145Z,1.90
2019-03-18T13:20:19.045Z,2.13
2019-03-18T13:22:47.314Z,1.90
2019-03-18T13:25:15.526Z,2.43
2019-03-18T13:27:43.665Z,1.73
2019-03-18T13:30:15.443Z,1.83
2019-03-18T13:32:43.241Z,1.67
2019-03-18T13:35:23.950Z,1.63
2019-03-18T13:37:44.892Z,1.70
2019-03-18T13:40:20.013Z,2.23
2019-03-18T13:42:48.536Z,1.53
2019-03-18T13:45:22.544Z,1.90
2019-03-18T13:47:50.658Z,1.37
2019-03-18T13:50:19.324Z,1.73
2019-03-18T13:52:47.488Z,1.67
2019-03-18T13:55:15.628Z,1.90
2019-03-18T13:57:43.932Z,2.20
2019-03-18T14:00:18.260Z,1.30
2019-03-18T14:02:46.428Z,1.77
2019-03-18T14:05:15.531Z,1.93
2019-03-18T14:07:43.699Z,1.50
2019-03-18T14:10:24.207Z,1.93
2019-03-18T14:12:52.364Z,1.57
2019-03-18T14:15:22.035Z,1.60
2019-03-18T14:18:10.485Z,1.40
2019-03-18T14:20:38.623Z,1.60
2019-03-18T14:23:10.801Z,1.87
2019-03-18T14:25:38.652Z,1.93
2019-03-18T14:28:07.814Z,2.00
2019-03-18T14:30:36.024Z,1.80
2019-03-18T14:33:05.146Z,1.70
2019-03-18T14:35:34.778Z,1.60
2019-03-18T14:38:02.959Z,1.57
2019-03-18T14:40:31.104Z,1.90
2019-03-18T14:43:05.428Z,1.50
2019-03-18T14:45:31.121Z,1.47
2019-03-18T14:47:59.268Z,2.00
2019-03-18T14:50:27.455Z,1.73
2019-03-18T14:52:55.644Z,1.30
2019-03-18T14:55:23.797Z,1.30
2019-03-18T14:57:51.956Z,1.33
2019-03-18T15:00:28.330Z,1.30
2019-03-18T15:02:56.742Z,1.80
2019-03-18T15:05:25.051Z,1.40
2019-03-18T15:07:53.219Z,1.47
2019-03-18T15:10:23.112Z,1.20
2019-03-18T15:12:51.271Z,1.90
2019-03-18T15:15:19.557Z,1.10
2019-03-18T15:17:47.694Z,1.07
2019-03-18T15:20:17.467Z,1.10
2019-03-18T15:22:45.668Z,1.50
2019-03-18T15:25:26.922Z,1.63
2019-03-18T15:27:55.122Z,1.70
2019-03-18T15:30:23.269Z,1.60
2019-03-18T15:32:51.489Z,1.63
2019-03-18T15:35:19.756Z,1.50
2019-03-18T15:37:47.893Z,1.77
2019-03-18T15:40:22.971Z,2.00
2019-03-18T15:42:51.113Z,2.20
2019-03-18T15:45:22.273Z,2.10
2019-03-18T15:47:50.459Z,1.63
2019-03-18T15:50:24.990Z,1.77
2019-03-18T15:52:53.141Z,2.10
2019-03-18T15:55:23.788Z,1.60
2019-03-18T15:57:51.123Z,2.10
2019-03-18T16:00:29.083Z,1.70
2019-03-18T16:02:57.229Z,2.03
2019-03-18T16:05:25.383Z,1.33
2019-03-18T16:07:53.556Z,1.60
2019-03-18T16:10:21.722Z,1.60
2019-03-18T16:12:50.729Z,2.47
2019-03-18T16:15:19.041Z,2.30
2019-03-18T16:17:47.188Z,2.00
2019-03-18T16:20:16.336Z,1.67
2019-03-18T16:22:47.992Z,1.40
2019-03-18T16:25:20.574Z,1.40
2019-03-18T16:27:50.675Z,1.83
2019-03-18T16:30:23.559Z,1.83
2019-03-18T16:32:53.098Z,1.80
2019-03-18T16:35:29.238Z,2.20
2019-03-18T16:38:00.796Z,2.00
2019-03-18T16:40:31.631Z,1.93
2019-03-18T16:45:56.658Z,1.50
2019-03-18T16:48:26.115Z,2.33
2019-03-18T16:50:54.282Z,1.50
2019-03-18T16:53:22.684Z,1.80
2019-03-18T16:55:50.830Z,1.47
2019-03-18T16:58:20.900Z,1.77
2019-03-18T17:00:48.922Z,1.60
2019-03-18T17:03:20.111Z,1.73
2019-03-18T17:05:50.598Z,2.27
2019-03-18T17:08:18.841Z,1.27
2019-03-18T17:10:46.981Z,1.20
2019-03-18T17:13:15.469Z,1.90
2019-03-18T17:15:44.056Z,1.80
2019-03-18T17:18:13.865Z,1.57
2019-03-18T17:20:42.022Z,1.53
2019-03-18T17:23:10.187Z,1.57
2019-03-18T17:25:38.348Z,1.43
2019-03-18T17:28:06.784Z,1.63
2019-03-18T17:30:35.005Z,1.63
2019-03-18T17:33:03.197Z,1.70
2019-03-18T17:35:31.312Z,1.80
2019-03-18T17:37:59.684Z,2.10
2019-03-18T17:40:27.827Z,1.90
2019-03-18T17:42:56.010Z,1.77
2019-03-18T17:45:28.206Z,1.40
2019-03-18T17:47:56.939Z,1.60
2019-03-18T17:50:28.937Z,1.80
2019-03-18T17:53:02.828Z,1.40
2019-03-18T17:55:27.005Z,1.60
2019-03-18T17:57:55.198Z,1.17
2019-03-18T18:00:25.111Z,1.57
2019-03-18T18:02:53.584Z,2.57
2019-03-18T18:05:22.199Z,1.30
2019-03-18T18:07:50.431Z,2.17
2019-03-18T18:10:18.713Z,2.07
2019-03-18T18:12:46.844Z,1.50
2019-03-18T18:15:16.771Z,2.43
2019-03-18T18:17:44.908Z,1.53
2019-03-18T18:20:14.710Z,1.90
2019-03-18T18:22:42.924Z,1.70
2019-03-18T18:25:14.198Z,1.57
2019-03-18T18:27:42.339Z,1.70
2019-03-18T18:30:13.153Z,1.50
2019-03-18T18:32:41.304Z,1.70
2019-03-18T18:35:10.229Z,2.03
2019-03-18T18:37:38.398Z,2.00
2019-03-18T18:40:08.541Z,1.70
2019-03-18T18:42:36.763Z,1.70
2019-03-18T18:45:05.889Z,2.10
2019-03-18T18:47:34.170Z,2.40
2019-03-18T18:50:02.311Z,2.10
2019-03-18T18:52:30.484Z,2.07
2019-03-18T18:54:59.981Z,2.60
2019-03-18T18:57:28.108Z,1.70
2019-03-18T18:59:56.282Z,2.10
2019-03-18T19:02:24.433Z,2.03
2019-03-18T19:04:52.580Z,2.15
2019-03-18T19:07:21.049Z,2.40
2019-03-18T19:09:49.189Z,2.37
2019-03-18T19:12:17.332Z,2.13
2019-03-18T19:14:45.634Z,2.50
2019-03-18T19:17:13.772Z,2.33
2019-03-18T19:19:41.918Z,2.50
2019-03-18T19:22:10.098Z,2.03
2019-03-18T19:24:38.241Z,2.40
2019-03-18T19:27:06.416Z,2.20
2019-03-18T19:29:35.916Z,2.37
2019-03-18T19:32:04.061Z,2.10
2019-03-18T19:34:32.201Z,2.23
2019-03-18T19:37:00.375Z,2.20
2019-03-18T19:39:28.515Z,2.13
2019-03-18T19:41:56.775Z,1.80
2019-03-18T19:44:24.953Z,2.20
2019-03-18T19:46:53.232Z,1.90
2019-03-18T19:49:21.380Z,2.87
2019-03-18T19:51:49.611Z,2.10
2019-03-18T19:54:18.313Z,2.20
2019-03-18T19:56:46.578Z,2.20
2019-03-18T19:59:17.162Z,2.57
2019-03-18T20:01:45.666Z,2.67
2019-03-18T20:04:13.815Z,2.30
2019-03-18T20:06:41.996Z,2.20
2019-03-18T20:09:10.279Z,2.60
2019-03-18T20:11:38.457Z,2.57
2019-03-18T20:14:08.494Z,2.97
2019-03-18T20:16:36.905Z,2.47
2019-03-18T20:19:05.062Z,2.40
2019-03-18T20:21:33.209Z,2.83
2019-03-18T20:24:04.065Z,2.40
2019-03-18T20:26:31.278Z,2.83
2019-03-18T20:28:59.452Z,3.13
2019-03-18T20:31:27.672Z,3.17
2019-03-18T20:33:55.813Z,3.07
2019-03-18T20:36:23.988Z,2.97
2019-03-18T20:38:52.140Z,2.90
2019-03-18T20:41:20.293Z,2.80
2019-03-18T20:43:48.451Z,3.13
2019-03-18T20:46:16.590Z,2.80
2019-03-18T20:48:44.733Z,2.73
2019-03-18T20:51:12.903Z,2.67
2019-03-18T20:53:41.034Z,3.00
2019-03-18T20:56:09.176Z,2.70
2019-03-18T21:01:29.092Z,3.03
2019-03-18T21:03:57.285Z,2.93
2019-03-18T21:06:25.443Z,2.73
2019-03-18T21:08:55.098Z,2.80
2019-03-18T21:11:23.297Z,2.70
2019-03-18T21:13:56.983Z,2.87
2019-03-18T21:16:22.148Z,3.00
2019-03-18T21:18:50.397Z,2.43
2019-03-18T21:21:18.545Z,2.83
2019-03-18T21:23:46.693Z,3.17
2019-03-18T21:26:14.922Z,3.60
2019-03-18T21:28:43.064Z,3.00
2019-03-18T21:31:11.242Z,3.13
2019-03-18T21:33:39.437Z,3.83
2019-03-18T21:36:07.644Z,2.87
2019-03-18T21:38:35.796Z,3.90
2019-03-18T21:41:03.968Z,3.33
2019-03-18T21:43:32.157Z,3.20
2019-03-18T21:46:00.312Z,3.07
2019-03-18T21:48:28.487Z,2.47
2019-03-18T21:50:56.824Z,3.27
2019-03-18T21:53:24.924Z,4.20
2019-03-18T21:55:53.122Z,3.83
2019-03-18T21:58:21.270Z,2.50
2019-03-18T22:00:49.417Z,3.40
2019-03-18T22:03:17.610Z,3.30
2019-03-18T22:05:45.773Z,2.80
2019-03-18T22:08:13.927Z,3.00
2019-03-18T22:10:42.100Z,3.13
2019-03-18T22:13:10.254Z,3.37
2019-03-18T22:15:38.405Z,2.83
2019-03-18T22:18:06.589Z,2.90
2019-03-18T22:20:34.743Z,3.07
2019-03-18T22:23:03.182Z,2.87
2019-03-18T22:25:31.430Z,3.23
2019-03-18T22:27:59.600Z,3.40
2019-03-18T22:30:27.785Z,3.50
2019-03-18T22:32:56.011Z,3.40
2019-03-18T22:35:24.167Z,2.90
2019-03-18T22:37:52.432Z,4.03
2019-03-18T22:40:20.799Z,2.90
2019-03-18T22:42:48.951Z,3.17
2019-03-18T22:45:17.258Z,3.20
2019-03-18T22:47:45.459Z,2.63
2019-03-18T22:50:14.074Z,3.50
2019-03-18T22:52:42.219Z,3.43
2019-03-18T22:55:11.013Z,3.20
2019-03-18T22:57:39.152Z,3.00
2019-03-18T23:00:10.575Z,4.70
2019-03-18T23:02:38.828Z,3.50
2019-03-18T23:05:07.149Z,3.03
2019-03-18T23:07:35.299Z,3.07
2019-03-18T23:10:04.704Z,2.97
2019-03-18T23:12:32.933Z,3.43
2019-03-18T23:15:01.068Z,2.70
2019-03-18T23:17:31.280Z,3.03
2019-03-18T23:19:59.470Z,2.60
2019-03-18T23:22:27.625Z,2.70
2019-03-18T23:25:06.351Z,3.70
2019-03-18T23:27:25.670Z,3.33
2019-03-18T23:29:53.821Z,3.00
2019-03-18T23:32:22.007Z,3.60
2019-03-18T23:34:50.149Z,3.40
2019-03-18T23:37:18.301Z,3.83
2019-03-18T23:39:46.477Z,2.90
2019-03-18T23:42:14.640Z,3.97
2019-03-18T23:44:42.796Z,3.33
2019-03-18T23:47:10.979Z,3.10
2019-03-18T23:49:39.129Z,3.30
2019-03-18T23:52:07.287Z,3.30
2019-03-18T23:54:35.473Z,3.23
2019-03-18T23:57:03.631Z,3.27
2019-03-18T23:59:31.836Z,3.47
